Time;durP1;ratioP1;P1;durP2;ratioP2;P2;SDS_P1;SDS_P2;PMS_P1;PMS_P2;Temp;Humidity;BMP_temperature;BMP_pressure;BME280_temperature;BME280_humidity;BME280_pressure;Samples;Min_cycle;Max_cycle;Signal;HPM_P1;HPM_P2
2022/10/07 00:01:28;;;;;;;0.63;0.63;;;;;;;;;;5052041;28;20103;-92
2022/10/07 00:03:54;;;;;;;1.05;0.88;;;;;;;;;;5052282;28;20041;-91
2022/10/07 00:06:22;;;;;;;0.60;0.60;;;;;;;;;;5052178;28;20041;-92
2022/10/07 00:08:49;;;;;;;1.80;1.70;;;;;;;;;;5051896;28;20194;-93
2022/10/07 00:11:17;;;;;;;1.20;1.13;;;;;;;;;;5051896;28;20053;-92
2022/10/07 00:13:44;;;;;;;0.98;0.75;;;;;;;;;;5052291;28;20052;-92
2022/10/07 00:16:12;;;;;;;1.70;0.82;;;;;;;;;;5052019;28;20064;-92
2022/10/07 00:18:40;;;;;;;1.20;0.95;;;;;;;;;;5069760;28;20129;-91
2022/10/07 00:21:07;;;;;;;1.25;1.15;;;;;;;;;;5071819;28;20113;-92
2022/10/07 00:23:34;;;;;;;0.95;0.90;;;;;;;;;;5071534;28;20082;-92
2022/10/07 00:26:01;;;;;;;1.10;0.98;;;;;;;;;;5071898;28;20048;-91
2022/10/07 00:28:28;;;;;;;1.35;1.25;;;;;;;;;;5071896;28;20056;-93
2022/10/07 00:30:57;;;;;;;0.30;0.28;;;;;;;;;;5071993;28;20045;-92
2022/10/07 00:33:24;;;;;;;0.75;0.55;;;;;;;;;;5071855;28;20488;-92
2022/10/07 00:35:52;;;;;;;0.95;0.90;;;;;;;;;;5055876;28;20099;-91
2022/10/07 00:38:18;;;;;;;0.88;0.82;;;;;;;;;;5054883;28;20094;-91
2022/10/07 00:40:45;;;;;;;0.55;0.47;;;;;;;;;;5055277;28;20045;-92
2022/10/07 00:43:18;;;;;;;1.00;0.90;;;;;;;;;;5069002;28;20508;-91
2022/10/07 00:45:45;;;;;;;10.55;1.05;;;;;;;;;;5066717;28;20125;-91
2022/10/07 00:48:14;;;;;;;0.90;0.90;;;;;;;;;;5066623;28;20056;-92
2022/10/07 00:50:41;;;;;;;0.47;0.38;;;;;;;;;;5069541;28;20045;-92
2022/10/07 00:53:09;;;;;;;1.52;1.38;;;;;;;;;;5060745;28;20047;-92
2022/10/07 00:55:36;;;;;;;1.58;0.82;;;;;;;;;;5064544;28;20072;-91
2022/10/07 00:58:05;;;;;;;1.17;1.00;;;;;;;;;;5067754;28;20048;-91
2022/10/07 01:00:31;;;;;;;1.15;1.13;;;;;;;;;;5061462;28;20052;-91
2022/10/07 01:02:58;;;;;;;1.35;1.10;;;;;;;;;;5066946;28;20102;-92
2022/10/07 01:05:25;;;;;;;1.13;1.05;;;;;;;;;;5074916;28;20488;-92
2022/10/07 01:07:51;;;;;;;0.82;0.82;;;;;;;;;;5073784;28;20057;-92
2022/10/07 01:10:21;;;;;;;0.70;0.55;;;;;;;;;;5074936;28;20052;-92
2022/10/07 01:12:57;;;;;;;1.05;0.57;;;;;;;;;;5074693;28;20098;-93
2022/10/07 01:15:29;;;;;;;2.25;1.33;;;;;;;;;;5071682;28;20110;-91
2022/10/07 01:18:01;;;;;;;1.02;0.93;;;;;;;;;;5064065;28;20048;-92
2022/10/07 01:20:36;;;;;;;0.80;0.80;;;;;;;;;;5074491;28;20052;-93
2022/10/07 01:23:10;;;;;;;1.38;0.75;;;;;;;;;;5063762;28;20538;-92
2022/10/07 01:25:45;;;;;;;0.60;0.60;;;;;;;;;;5054398;28;20449;-92
2022/10/07 01:28:15;;;;;;;0.90;0.90;;;;;;;;;;5065792;28;20048;-91
2022/10/07 01:30:44;;;;;;;2.95;2.80;;;;;;;;;;5074870;28;20048;-92
2022/10/07 01:33:13;;;;;;;1.33;1.23;;;;;;;;;;5074336;28;20053;-92
2022/10/07 01:35:40;;;;;;;1.05;0.98;;;;;;;;;;5074291;28;20052;-92
2022/10/07 01:38:08;;;;;;;1.30;1.00;;;;;;;;;;5073790;28;20489;-91
2022/10/07 01:40:37;;;;;;;2.00;1.17;;;;;;;;;;5072985;28;20496;-91
2022/10/07 01:43:05;;;;;;;1.42;1.08;;;;;;;;;;5062564;28;20099;-93
2022/10/07 01:45:34;;;;;;;1.05;1.02;;;;;;;;;;5054302;28;20045;-92
2022/10/07 01:48:01;;;;;;;1.25;1.15;;;;;;;;;;5062582;28;20048;-92
2022/10/07 01:50:28;;;;;;;1.17;0.95;;;;;;;;;;5074344;28;20052;-92
2022/10/07 01:53:03;;;;;;;1.15;1.05;;;;;;;;;;5073666;28;20110;-90
2022/10/07 01:55:48;;;;;;;0.30;0.20;;;;;;;;;;5074416;28;20102;-93
2022/10/07 01:58:18;;;;;;;0.95;0.80;;;;;;;;;;5073129;28;20052;-93
2022/10/07 02:00:47;;;;;;;0.68;0.57;;;;;;;;;;5071229;28;20143;-93
2022/10/07 02:03:22;;;;;;;1.58;1.48;;;;;;;;;;5054172;28;20546;-93
2022/10/07 02:05:52;;;;;;;1.38;0.93;;;;;;;;;;5053876;28;20108;-92
2022/10/07 02:08:25;;;;;;;2.20;1.13;;;;;;;;;;5063497;28;20047;-93
2022/10/07 02:11:01;;;;;;;1.35;1.25;;;;;;;;;;5074221;28;20102;-94
2022/10/07 02:13:33;;;;;;;1.42;0.98;;;;;;;;;;5066608;28;20397;-92
2022/10/07 02:16:04;;;;;;;1.13;1.00;;;;;;;;;;5053203;28;20061;-92
2022/10/07 02:18:33;;;;;;;1.23;0.82;;;;;;;;;;5053930;28;20053;-94
2022/10/07 02:21:02;;;;;;;1.55;1.20;;;;;;;;;;5053658;28;20049;-93
2022/10/07 02:23:33;;;;;;;1.95;1.08;;;;;;;;;;5053558;28;20064;-93
2022/10/07 02:25:59;;;;;;;0.95;0.80;;;;;;;;;;5053555;28;20130;-91
2022/10/07 02:28:26;;;;;;;6.80;1.10;;;;;;;;;;5053420;28;20044;-93
2022/10/07 02:30:55;;;;;;;0.90;0.68;;;;;;;;;;5059670;28;20053;-93
2022/10/07 02:33:26;;;;;;;1.90;1.80;;;;;;;;;;5064363;28;20106;-92
2022/10/07 02:35:54;;;;;;;1.00;0.63;;;;;;;;;;5053028;28;20136;-92
2022/10/07 02:38:21;;;;;;;0.38;0.25;;;;;;;;;;5053092;28;20412;-92
2022/10/07 02:40:54;;;;;;;1.50;1.40;;;;;;;;;;5053354;28;20045;-93
2022/10/07 02:43:27;;;;;;;2.00;1.35;;;;;;;;;;5061983;28;20041;-93
2022/10/07 02:45:58;;;;;;;1.92;0.90;;;;;;;;;;5072860;28;20051;-92
2022/10/07 02:48:28;;;;;;;1.92;1.60;;;;;;;;;;5057813;28;20099;-92
2022/10/07 02:50:59;;;;;;;2.35;0.90;;;;;;;;;;5053522;28;20099;-92
2022/10/07 02:53:27;;;;;;;0.80;0.80;;;;;;;;;;5053009;28;20417;-93
2022/10/07 02:55:54;;;;;;;0.80;0.77;;;;;;;;;;5052247;28;20049;-93
2022/10/07 02:58:24;;;;;;;1.05;0.57;;;;;;;;;;5052779;28;20045;-94
2022/10/07 03:00:52;;;;;;;1.27;0.93;;;;;;;;;;5052810;28;20129;-92
2022/10/07 03:03:19;;;;;;;3.28;2.05;;;;;;;;;;5052946;28;20037;-93
2022/10/07 03:05:48;;;;;;;0.93;0.93;;;;;;;;;;5052585;28;20451;-92
2022/10/07 03:08:14;;;;;;;1.05;1.05;;;;;;;;;;5052790;28;20071;-93
2022/10/07 03:10:41;;;;;;;2.10;2.00;;;;;;;;;;5052827;28;20439;-93
2022/10/07 03:13:07;;;;;;;1.85;1.15;;;;;;;;;;5052814;28;20443;-93
2022/10/07 03:15:36;;;;;;;0.55;0.55;;;;;;;;;;5052373;28;20056;-92
2022/10/07 03:18:02;;;;;;;1.40;1.30;;;;;;;;;;5052901;28;20566;-93
2022/10/07 03:20:31;;;;;;;1.17;1.08;;;;;;;;;;5052667;28;20052;-93
2022/10/07 03:22:59;;;;;;;2.30;1.17;;;;;;;;;;5057892;28;20048;-93
2022/10/07 03:25:26;;;;;;;0.70;0.60;;;;;;;;;;5052732;28;20045;-92
2022/10/07 03:27:53;;;;;;;0.98;0.55;;;;;;;;;;5052636;28;20056;-92
2022/10/07 03:30:21;;;;;;;1.13;1.10;;;;;;;;;;5052949;28;20057;-92
2022/10/07 03:32:48;;;;;;;1.60;1.50;;;;;;;;;;5053672;28;20413;-93
2022/10/07 03:35:15;;;;;;;1.92;1.33;;;;;;;;;;5072508;28;20053;-92
2022/10/07 03:37:41;;;;;;;1.45;1.42;;;;;;;;;;5072340;28;20093;-92
2022/10/07 03:40:10;;;;;;;0.90;0.88;;;;;;;;;;5056807;28;20045;-92
2022/10/07 03:42:36;;;;;;;1.17;1.02;;;;;;;;;;5052110;28;20048;-92
2022/10/07 03:45:04;;;;;;;0.80;0.77;;;;;;;;;;5052093;28;20444;-92
2022/10/07 03:47:30;;;;;;;1.33;1.25;;;;;;;;;;5052162;28;20106;-92
2022/10/07 03:49:57;;;;;;;1.00;0.85;;;;;;;;;;5070083;28;20431;-92
2022/10/07 03:52:23;;;;;;;0.60;0.40;;;;;;;;;;5071954;28;20554;-92
2022/10/07 03:54:51;;;;;;;0.22;0.10;;;;;;;;;;5063799;28;20055;-91
2022/10/07 04:00:03;;;;;;;1.85;1.55;;;;;;;;;;5051700;28;20259;-91
2022/10/07 04:02:29;;;;;;;1.08;0.40;;;;;;;;;;5051967;28;20140;-91
2022/10/07 04:04:55;;;;;;;1.17;1.10;;;;;;;;;;5051875;28;20492;-92
2022/10/07 04:07:22;;;;;;;0.85;0.85;;;;;;;;;;5054015;28;20053;-92
2022/10/07 04:09:49;;;;;;;0.80;0.80;;;;;;;;;;5056123;28;20123;-91
2022/10/07 04:12:15;;;;;;;0.73;0.73;;;;;;;;;;5056274;28;20095;-91
2022/10/07 04:14:43;;;;;;;0.77;0.57;;;;;;;;;;5056120;28;20049;-91
2022/10/07 04:17:10;;;;;;;0.75;0.57;;;;;;;;;;5056180;28;20049;-92
2022/10/07 04:19:36;;;;;;;0.63;0.63;;;;;;;;;;5069253;28;20098;-92
2022/10/07 04:22:04;;;;;;;0.82;0.63;;;;;;;;;;5076233;28;20108;-92
2022/10/07 04:24:31;;;;;;;0.68;0.60;;;;;;;;;;5075567;28;20462;-92
2022/10/07 04:26:57;;;;;;;1.65;0.60;;;;;;;;;;5075010;28;20052;-92
2022/10/07 04:29:23;;;;;;;0.45;0.45;;;;;;;;;;5064460;28;20053;-92
2022/10/07 04:31:51;;;;;;;0.60;0.55;;;;;;;;;;5055782;28;20458;-91
2022/10/07 04:34:18;;;;;;;2.20;0.93;;;;;;;;;;5055390;28;20083;-91
2022/10/07 04:36:44;;;;;;;1.80;1.63;;;;;;;;;;5055419;28;20122;-90
2022/10/07 04:39:11;;;;;;;1.38;0.85;;;;;;;;;;5064298;28;20048;-92
2022/10/07 04:41:37;;;;;;;1.83;1.27;;;;;;;;;;5075268;28;20048;-91
2022/10/07 04:44:04;;;;;;;2.03;1.17;;;;;;;;;;5067071;28;20464;-92
2022/10/07 04:46:31;;;;;;;1.90;1.27;;;;;;;;;;5055722;28;20057;-93
2022/10/07 04:48:59;;;;;;;2.63;2.33;;;;;;;;;;5054795;28;20045;-93
2022/10/07 04:51:25;;;;;;;3.67;2.00;;;;;;;;;;5055450;28;20098;-92
2022/10/07 04:53:52;;;;;;;1.42;1.10;;;;;;;;;;5055326;28;20095;-92
2022/10/07 04:56:19;;;;;;;4.15;1.80;;;;;;;;;;5055299;28;20086;-91
2022/10/07 04:58:45;;;;;;;6.43;1.10;;;;;;;;;;5059119;28;20040;-91
2022/10/07 05:01:12;;;;;;;3.35;2.38;;;;;;;;;;5062789;28;20140;-92
2022/10/07 05:03:39;;;;;;;0.90;0.85;;;;;;;;;;5055138;28;20061;-93
2022/10/07 05:06:07;;;;;;;4.38;0.93;;;;;;;;;;5055076;28;20057;-94
2022/10/07 05:08:34;;;;;;;0.50;0.30;;;;;;;;;;5055391;28;20547;-94
2022/10/07 05:11:01;;;;;;;1.08;0.88;;;;;;;;;;5055521;28;20427;-93
2022/10/07 05:13:28;;;;;;;2.03;1.92;;;;;;;;;;5055991;28;20057;-94
2022/10/07 05:15:55;;;;;;;1.13;0.95;;;;;;;;;;5074946;28;20060;-93
2022/10/07 05:18:22;;;;;;;2.00;0.90;;;;;;;;;;5072716;28;20083;-91
2022/10/07 05:20:49;;;;;;;2.10;2.00;;;;;;;;;;5075950;28;20052;-91
2022/10/07 05:23:17;;;;;;;3.17;2.70;;;;;;;;;;5060013;28;20049;-95
2022/10/07 05:25:44;;;;;;;1.20;1.10;;;;;;;;;;5056225;28;20110;-93
2022/10/07 05:28:11;;;;;;;1.35;1.25;;;;;;;;;;5054947;28;20546;-92
2022/10/07 05:30:38;;;;;;;1.40;1.30;;;;;;;;;;5054928;28;20045;-93
2022/10/07 05:33:05;;;;;;;0.70;0.70;;;;;;;;;;5054847;28;20061;-90
2022/10/07 05:35:32;;;;;;;2.28;1.02;;;;;;;;;;5057483;28;20618;-90
2022/10/07 05:37:59;;;;;;;3.42;1.90;;;;;;;;;;5068148;28;20566;-90
2022/10/07 05:40:27;;;;;;;2.20;1.95;;;;;;;;;;5063745;28;20041;-90
2022/10/07 05:42:54;;;;;;;1.75;1.65;;;;;;;;;;5063305;28;20103;-91
2022/10/07 05:45:20;;;;;;;1.77;1.55;;;;;;;;;;5062446;28;20126;-91
2022/10/07 05:47:47;;;;;;;1.67;1.23;;;;;;;;;;5052575;28;20096;-90
2022/10/07 05:50:13;;;;;;;3.63;2.03;;;;;;;;;;5053504;28;20415;-91
2022/10/07 05:52:41;;;;;;;5.72;3.03;;;;;;;;;;5053853;28;20102;-91
2022/10/07 05:55:08;;;;;;;5.15;2.33;;;;;;;;;;5052967;28;20077;-90
2022/10/07 05:57:38;;;;;;;2.40;1.63;;;;;;;;;;5053970;28;20048;-89
2022/10/07 06:00:06;;;;;;;2.38;2.17;;;;;;;;;;5053538;28;20053;-91
2022/10/07 06:02:32;;;;;;;3.28;2.80;;;;;;;;;;5053412;28;20055;-91
2022/10/07 06:04:59;;;;;;;3.65;3.35;;;;;;;;;;5052877;28;20057;-91
2022/10/07 06:07:26;;;;;;;4.78;2.80;;;;;;;;;;5052960;28;20496;-90
2022/10/07 06:15:22;;;;;;;3.90;2.10;;;;;;;;;;5049272;28;20075;-91
2022/10/07 06:17:49;;;;;;;3.30;3.00;;;;;;;;;;5072572;28;20064;-91
2022/10/07 06:20:16;;;;;;;3.00;2.38;;;;;;;;;;5072519;28;20051;-90
2022/10/07 06:22:43;;;;;;;2.60;1.50;;;;;;;;;;5069964;28;20362;-91
2022/10/07 06:25:09;;;;;;;3.25;2.67;;;;;;;;;;5065269;28;20500;-91
2022/10/07 06:27:36;;;;;;;1.65;1.55;;;;;;;;;;5072675;28;20045;-90
2022/10/07 06:30:04;;;;;;;5.00;2.42;;;;;;;;;;5071965;28;20110;-91
2022/10/07 06:32:31;;;;;;;2.75;2.58;;;;;;;;;;5072560;28;20052;-91
2022/10/07 06:34:58;;;;;;;2.78;2.30;;;;;;;;;;5072327;28;20055;-90
2022/10/07 06:37:24;;;;;;;2.60;2.38;;;;;;;;;;5072710;28;20167;-92
2022/10/07 06:39:51;;;;;;;3.00;2.70;;;;;;;;;;5071498;28;20451;-90
2022/10/07 06:42:17;;;;;;;3.08;2.53;;;;;;;;;;5072302;28;20044;-90
2022/10/07 06:44:44;;;;;;;5.60;3.25;;;;;;;;;;5072126;28;20846;-91
2022/10/07 06:47:11;;;;;;;2.83;2.08;;;;;;;;;;5072119;28;20094;-91
2022/10/07 06:49:38;;;;;;;2.97;2.75;;;;;;;;;;5072360;28;20052;-90
2022/10/07 06:52:05;;;;;;;7.97;7.28;;;;;;;;;;5072307;28;20044;-91
2022/10/07 06:54:31;;;;;;;2.42;1.70;;;;;;;;;;5071181;28;20464;-92
2022/10/07 06:56:58;;;;;;;4.05;2.35;;;;;;;;;;5072081;28;20106;-91
2022/10/07 06:59:24;;;;;;;4.07;3.75;;;;;;;;;;5071515;28;20103;-91
2022/10/07 07:01:50;;;;;;;0.90;0.88;;;;;;;;;;5071465;28;20447;-91
2022/10/07 07:04:18;;;;;;;2.38;1.90;;;;;;;;;;5072068;28;20048;-90
2022/10/07 07:06:45;;;;;;;4.65;2.40;;;;;;;;;;5071857;28;20049;-92
2022/10/07 07:09:11;;;;;;;3.33;2.55;;;;;;;;;;5072003;28;20060;-90
2022/10/07 07:11:40;;;;;;;2.47;2.20;;;;;;;;;;5054396;28;20052;-90
2022/10/07 07:14:07;;;;;;;2.83;2.40;;;;;;;;;;5055975;28;20056;-91
2022/10/07 07:16:34;;;;;;;2.53;2.33;;;;;;;;;;5071429;28;20103;-93
2022/10/07 07:19:01;;;;;;;6.20;2.75;;;;;;;;;;5072327;28;20048;-91
2022/10/07 07:21:29;;;;;;;3.65;3.35;;;;;;;;;;5072003;28;20067;-91
2022/10/07 07:23:56;;;;;;;5.25;2.35;;;;;;;;;;5067681;28;20044;-90
2022/10/07 07:26:23;;;;;;;3.00;2.63;;;;;;;;;;5069315;28;20094;-91
2022/10/07 07:28:53;;;;;;;5.82;2.50;;;;;;;;;;5059683;28;20049;-92
2022/10/07 07:31:20;;;;;;;3.08;2.88;;;;;;;;;;5051993;28;20079;-91
2022/10/07 07:33:51;;;;;;;3.53;2.85;;;;;;;;;;5052133;28;20049;-92
2022/10/07 07:36:18;;;;;;;5.65;3.42;;;;;;;;;;5052713;28;20136;-91
2022/10/07 07:38:51;;;;;;;5.20;2.67;;;;;;;;;;5070441;28;20052;-91
2022/10/07 07:41:18;;;;;;;4.88;3.80;;;;;;;;;;5066830;28;20126;-90
2022/10/07 07:43:47;;;;;;;6.95;2.35;;;;;;;;;;5065450;28;20503;-92
2022/10/07 07:46:14;;;;;;;7.90;2.33;;;;;;;;;;5071607;28;20397;-92
2022/10/07 07:48:40;;;;;;;2.20;2.00;;;;;;;;;;5071869;28;20664;-91
2022/10/07 07:51:07;;;;;;;6.55;3.28;;;;;;;;;;5058045;28;20107;-93
2022/10/07 07:53:34;;;;;;;2.30;2.10;;;;;;;;;;5052107;28;20053;-93
2022/10/07 07:56:02;;;;;;;1.55;1.45;;;;;;;;;;5062363;28;20044;-93
2022/10/07 07:58:28;;;;;;;4.00;3.00;;;;;;;;;;5064435;28;20049;-91
2022/10/07 08:00:58;;;;;;;2.60;1.80;;;;;;;;;;5065162;28;20102;-92
2022/10/07 08:03:25;;;;;;;2.70;2.50;;;;;;;;;;5055391;28;20044;-92
2022/10/07 08:05:52;;;;;;;2.50;2.30;;;;;;;;;;5072446;28;20117;-92
2022/10/07 08:08:18;;;;;;;3.33;3.13;;;;;;;;;;5071747;28;20094;-91
2022/10/07 08:10:45;;;;;;;3.83;2.65;;;;;;;;;;5067141;28;20064;-91
2022/10/07 08:13:13;;;;;;;2.55;2.35;;;;;;;;;;5066347;28;20040;-90
2022/10/07 08:15:39;;;;;;;1.45;1.38;;;;;;;;;;5075910;28;20053;-91
2022/10/07 08:18:07;;;;;;;3.70;2.58;;;;;;;;;;5071607;28;20048;-92
2022/10/07 08:20:34;;;;;;;4.10;3.80;;;;;;;;;;5066758;28;20448;-92
2022/10/07 08:23:01;;;;;;;4.35;4.13;;;;;;;;;;5068858;28;20166;-91
2022/10/07 08:25:28;;;;;;;3.58;2.83;;;;;;;;;;5068210;28;20052;-91
2022/10/07 08:27:55;;;;;;;3.65;2.30;;;;;;;;;;5071625;28;20052;-91
2022/10/07 08:30:23;;;;;;;2.72;2.22;;;;;;;;;;5066053;28;20055;-89
2022/10/07 08:32:49;;;;;;;1.75;1.58;;;;;;;;;;5064486;28;20135;-89
2022/10/07 08:35:16;;;;;;;2.45;2.25;;;;;;;;;;5070461;28;20106;-89
2022/10/07 08:37:42;;;;;;;3.33;3.13;;;;;;;;;;5064121;28;20041;-89
2022/10/07 08:40:13;;;;;;;2.85;2.63;;;;;;;;;;5065289;28;20056;-88
2022/10/07 08:42:39;;;;;;;;;;;;;;;;;;5051361;28;20057;-89
2022/10/07 08:45:07;;;;;;;3.78;3.47;;;;;;;;;;5070670;28;19928;-92
2022/10/07 08:47:37;;;;;;;6.35;3.92;;;;;;;;;;5066108;28;20055;-91
2022/10/07 08:50:08;;;;;;;2.65;2.42;;;;;;;;;;5064974;28;20124;-90
2022/10/07 08:52:40;;;;;;;2.83;2.63;;;;;;;;;;5076504;28;20058;-92
2022/10/07 08:55:15;;;;;;;2.67;2.47;;;;;;;;;;5072001;28;20040;-90
2022/10/07 08:57:46;;;;;;;2.97;2.08;;;;;;;;;;5074675;28;20476;-90
2022/10/07 09:00:16;;;;;;;2.63;2.40;;;;;;;;;;5074398;28;20045;-90
2022/10/07 09:02:48;;;;;;;2.60;2.40;;;;;;;;;;5074445;28;20515;-90
2022/10/07 09:05:20;;;;;;;4.50;2.33;;;;;;;;;;5073966;28;20518;-91
2022/10/07 09:07:49;;;;;;;2.45;2.25;;;;;;;;;;5073821;28;20049;-92
2022/10/07 09:10:23;;;;;;;2.33;2.08;;;;;;;;;;5054730;28;20448;-91
2022/10/07 09:12:52;;;;;;;2.42;2.33;;;;;;;;;;5054362;28;20140;-90
2022/10/07 09:15:20;;;;;;;4.55;2.95;;;;;;;;;;5054682;28;20059;-91
2022/10/07 09:17:52;;;;;;;5.95;2.97;;;;;;;;;;5054759;28;20064;-91
2022/10/07 09:20:19;;;;;;;2.33;2.13;;;;;;;;;;5067662;28;20048;-91
2022/10/07 09:22:53;;;;;;;2.92;2.72;;;;;;;;;;5074447;28;20045;-91
2022/10/07 09:25:21;;;;;;;1.73;1.50;;;;;;;;;;5072257;28;20558;-92
2022/10/07 09:27:50;;;;;;;2.22;2.03;;;;;;;;;;5054888;28;20053;-92
2022/10/07 09:30:17;;;;;;;2.88;1.38;;;;;;;;;;5059078;28;20483;-92
2022/10/07 09:32:44;;;;;;;2.58;2.42;;;;;;;;;;5088944;28;20049;-91
2022/10/07 09:35:14;;;;;;;2.45;1.83;;;;;;;;;;5086242;28;20077;-91
2022/10/07 09:37:54;;;;;;;2.72;2.47;;;;;;;;;;5074389;28;20061;-91
2022/10/07 09:40:22;;;;;;;5.15;3.65;;;;;;;;;;5056138;28;20057;-92
2022/10/07 09:42:48;;;;;;;3.05;2.15;;;;;;;;;;5054101;28;20090;-92
2022/10/07 09:45:19;;;;;;;3.83;2.55;;;;;;;;;;5054706;28;20052;-92
2022/10/07 09:47:51;;;;;;;2.30;1.58;;;;;;;;;;5074150;28;20048;-91
2022/10/07 09:50:31;;;;;;;2.63;1.77;;;;;;;;;;5073188;28;20055;-91
2022/10/07 09:52:58;;;;;;;2.55;2.35;;;;;;;;;;5074149;28;20117;-92
2022/10/07 09:55:32;;;;;;;2.17;2.08;;;;;;;;;;5073334;28;20055;-92
2022/10/07 09:58:00;;;;;;;2.58;1.45;;;;;;;;;;5072561;28;20052;-91
2022/10/07 10:00:27;;;;;;;3.88;1.70;;;;;;;;;;5073720;28;20127;-92
2022/10/07 10:02:56;;;;;;;2.88;2.67;;;;;;;;;;5073691;28;20044;-91
2022/10/07 10:05:24;;;;;;;3.50;2.35;;;;;;;;;;5072621;28;20080;-91
2022/10/07 10:07:56;;;;;;;2.15;2.05;;;;;;;;;;5067876;28;20045;-90
2022/10/07 10:10:25;;;;;;;5.20;1.88;;;;;;;;;;5073050;28;20516;-91
2022/10/07 10:12:53;;;;;;;1.65;1.55;;;;;;;;;;5057731;28;20048;-91
2022/10/07 10:15:24;;;;;;;3.38;2.53;;;;;;;;;;5065155;28;20048;-92
2022/10/07 10:17:51;;;;;;;2.50;2.33;;;;;;;;;;5064595;28;20041;-91
2022/10/07 10:20:29;;;;;;;2.10;1.90;;;;;;;;;;5056950;28;20052;-91
2022/10/07 10:22:57;;;;;;;5.63;5.40;;;;;;;;;;5055862;28;20492;-90
2022/10/07 10:28:17;;;;;;;2.08;1.98;;;;;;;;;;5052726;28;20179;-91
2022/10/07 10:30:49;;;;;;;2.97;2.78;;;;;;;;;;5053209;28;20118;-91
2022/10/07 10:33:20;;;;;;;3.97;2.22;;;;;;;;;;5060149;28;20037;-91
2022/10/07 10:35:53;;;;;;;2.78;2.58;;;;;;;;;;5072321;28;20450;-91
2022/10/07 10:38:35;;;;;;;2.60;2.40;;;;;;;;;;5069442;28;20126;-91
2022/10/07 10:41:05;;;;;;;3.38;2.72;;;;;;;;;;5071959;28;20044;-91
2022/10/07 10:43:35;;;;;;;3.28;2.67;;;;;;;;;;5060739;28;20052;-91
2022/10/07 10:46:11;;;;;;;2.63;2.53;;;;;;;;;;5058927;28;20512;-92
2022/10/07 10:48:42;;;;;;;2.95;2.75;;;;;;;;;;5052425;28;20049;-92
2022/10/07 10:51:16;;;;;;;3.42;3.13;;;;;;;;;;5062064;28;20045;-91
2022/10/07 10:53:47;;;;;;;2.25;2.08;;;;;;;;;;5052341;28;20045;-90
2022/10/07 10:56:27;;;;;;;2.78;2.38;;;;;;;;;;5051560;28;20122;-91
2022/10/07 10:59:02;;;;;;;2.45;2.25;;;;;;;;;;5052381;28;20469;-91
2022/10/07 11:01:33;;;;;;;3.13;2.92;;;;;;;;;;5055312;28;20110;-91
2022/10/07 11:04:13;;;;;;;2.90;2.70;;;;;;;;;;5071988;28;20049;-91
2022/10/07 11:06:42;;;;;;;3.60;3.33;;;;;;;;;;5071707;28;20135;-90
2022/10/07 11:09:12;;;;;;;3.17;2.97;;;;;;;;;;5072570;28;20052;-91
2022/10/07 11:11:41;;;;;;;3.17;2.97;;;;;;;;;;5064874;28;20048;-91
2022/10/07 11:14:12;;;;;;;3.80;3.60;;;;;;;;;;5052332;28;20504;-91
2022/10/07 11:16:41;;;;;;;2.97;2.78;;;;;;;;;;5051342;28;20094;-91
2022/10/07 11:19:11;;;;;;;2.95;2.75;;;;;;;;;;5051976;28;20053;-91
2022/10/07 11:21:39;;;;;;;2.08;1.98;;;;;;;;;;5051819;28;20504;-91
2022/10/07 11:24:12;;;;;;;3.45;3.15;;;;;;;;;;5052134;28;20052;-91
2022/10/07 11:26:41;;;;;;;3.85;3.65;;;;;;;;;;5051706;28;20140;-91
2022/10/07 11:29:18;;;;;;;3.65;3.45;;;;;;;;;;5052116;28;20052;-91
2022/10/07 11:31:49;;;;;;;3.08;2.88;;;;;;;;;;5052045;28;20059;-91
2022/10/07 11:34:17;;;;;;;4.40;4.20;;;;;;;;;;5051637;28;20118;-90
2022/10/07 11:36:55;;;;;;;4.35;4.05;;;;;;;;;;5051650;28;20504;-91
2022/10/07 11:39:22;;;;;;;2.55;2.35;;;;;;;;;;5051869;28;20099;-91
2022/10/07 11:41:53;;;;;;;4.05;3.78;;;;;;;;;;5051833;28;20088;-90
2022/10/07 11:44:23;;;;;;;3.65;3.35;;;;;;;;;;5051184;28;20048;-92
2022/10/07 11:46:50;;;;;;;2.53;2.33;;;;;;;;;;5058496;28;20101;-91
2022/10/07 11:49:20;;;;;;;3.72;3.53;;;;;;;;;;5071465;28;20056;-90
2022/10/07 11:51:51;;;;;;;3.25;2.95;;;;;;;;;;5060151;28;20077;-92
2022/10/07 11:54:20;;;;;;;5.18;4.88;;;;;;;;;;5051549;28;20569;-90
2022/10/07 11:56:48;;;;;;;3.38;3.17;;;;;;;;;;5051498;28;20520;-90
2022/10/07 11:59:30;;;;;;;2.35;2.15;;;;;;;;;;5051647;28;20473;-90
2022/10/07 12:01:57;;;;;;;2.67;2.58;;;;;;;;;;5051867;28;20049;-91
2022/10/07 12:04:47;;;;;;;2.60;2.47;;;;;;;;;;5051141;28;20041;-91
2022/10/07 12:07:32;;;;;;;2.60;2.40;;;;;;;;;;5051472;28;20045;-91
2022/10/07 12:10:20;;;;;;;2.17;2.08;;;;;;;;;;5061244;28;20056;-91
2022/10/07 12:12:48;;;;;;;4.40;4.20;;;;;;;;;;5071091;28;20063;-90
2022/10/07 12:15:25;;;;;;;2.40;2.28;;;;;;;;;;5071641;28;20052;-91
2022/10/07 12:17:54;;;;;;;3.42;3.25;;;;;;;;;;5071155;28;20055;-91
2022/10/07 12:20:38;;;;;;;2.40;2.13;;;;;;;;;;5071282;28;20057;-90
2022/10/07 12:23:19;;;;;;;2.28;2.08;;;;;;;;;;5068537;28;20056;-88
2022/10/07 12:25:46;;;;;;;3.08;2.95;;;;;;;;;;5057967;28;20052;-91
2022/10/07 12:28:15;;;;;;;2.75;2.63;;;;;;;;;;5072718;28;20044;-91
2022/10/07 12:30:49;;;;;;;3.13;2.92;;;;;;;;;;5075313;28;20052;-90
2022/10/07 12:33:16;;;;;;;3.08;2.17;;;;;;;;;;5058427;28;20044;-91
2022/10/07 12:35:46;;;;;;;2.88;2.67;;;;;;;;;;5073101;28;20048;-91
2022/10/07 12:38:15;;;;;;;7.60;7.10;;;;;;;;;;5059162;28;20049;-91
2022/10/07 12:40:44;;;;;;;2.33;2.13;;;;;;;;;;5055302;28;20147;-91
2022/10/07 12:43:19;;;;;;;2.55;2.40;;;;;;;;;;5055151;28;20106;-91
2022/10/07 12:45:47;;;;;;;3.83;3.53;;;;;;;;;;5054825;28;20060;-91
2022/10/07 12:48:16;;;;;;;4.65;4.30;;;;;;;;;;5059503;28;20053;-90
2022/10/07 12:50:43;;;;;;;3.78;3.58;;;;;;;;;;5054609;28;20484;-90
2022/10/07 12:53:11;;;;;;;3.30;3.10;;;;;;;;;;5054952;28;20053;-91
2022/10/07 12:55:39;;;;;;;3.22;2.58;;;;;;;;;;5054727;28;20052;-91
2022/10/07 13:01:03;;;;;;;2.92;2.72;;;;;;;;;;5074902;28;20055;-91
2022/10/07 13:03:43;;;;;;;3.30;3.10;;;;;;;;;;5058132;28;20048;-91
2022/10/07 13:06:25;;;;;;;3.80;3.60;;;;;;;;;;5054277;28;20493;-90
2022/10/07 13:09:15;;;;;;;6.68;6.28;;;;;;;;;;5054199;28;20056;-91
2022/10/07 13:12:05;;;;;;;3.03;2.83;;;;;;;;;;5012077;28;20510;-91
2022/10/07 13:14:35;;;;;;;3.53;3.30;;;;;;;;;;4988624;28;20397;-91
2022/10/07 13:17:12;;;;;;;4.35;3.97;;;;;;;;;;5012117;28;20057;-90
2022/10/07 13:19:42;;;;;;;3.30;2.83;;;;;;;;;;5012460;28;20516;-90
2022/10/07 13:22:12;;;;;;;3.88;3.67;;;;;;;;;;5016672;28;20076;-91
2022/10/07 13:24:39;;;;;;;5.88;5.50;;;;;;;;;;5032532;28;20053;-89
2022/10/07 13:27:07;;;;;;;5.07;4.75;;;;;;;;;;5028731;28;20108;-87
2022/10/07 13:29:33;;;;;;;4.03;3.72;;;;;;;;;;5031114;28;20107;-89
2022/10/07 13:32:05;;;;;;;3.70;3.50;;;;;;;;;;5032175;28;20086;-88
2022/10/07 13:34:32;;;;;;;3.72;3.08;;;;;;;;;;5013518;28;20104;-88
2022/10/07 13:36:59;;;;;;;4.45;4.18;;;;;;;;;;5012197;28;20054;-88
2022/10/07 13:39:25;;;;;;;4.25;2.97;;;;;;;;;;5010950;28;20120;-89
2022/10/07 13:41:54;;;;;;;5.65;3.72;;;;;;;;;;5011723;28;20050;-87
2022/10/07 13:44:21;;;;;;;4.45;2.88;;;;;;;;;;5015655;28;20045;-87
2022/10/07 13:46:53;;;;;;;4.18;3.80;;;;;;;;;;5028331;28;20088;-89
2022/10/07 13:49:24;;;;;;;4.20;3.67;;;;;;;;;;5066244;28;20503;-88
2022/10/07 13:51:50;;;;;;;4.18;3.83;;;;;;;;;;5068709;28;20060;-87
2022/10/07 13:54:18;;;;;;;5.30;3.38;;;;;;;;;;5053689;28;20049;-87
2022/10/07 13:56:46;;;;;;;3.60;3.40;;;;;;;;;;5053819;28;20111;-88
2022/10/07 13:59:17;;;;;;;4.47;4.13;;;;;;;;;;5059047;28;20048;-87
2022/10/07 14:01:44;;;;;;;2.58;2.47;;;;;;;;;;5053755;28;20053;-87
2022/10/07 14:04:26;;;;;;;2.75;2.38;;;;;;;;;;5072519;28;20052;-87
2022/10/07 14:06:54;;;;;;;2.38;2.17;;;;;;;;;;5073403;28;20101;-88
2022/10/07 14:09:32;;;;;;;3.13;2.50;;;;;;;;;;5073109;28;20075;-88
2022/10/07 14:12:01;;;;;;;6.10;5.80;;;;;;;;;;5073227;28;20566;-89
2022/10/07 14:14:31;;;;;;;3.58;3.38;;;;;;;;;;5053342;28;20057;-88
2022/10/07 14:16:59;;;;;;;3.10;2.95;;;;;;;;;;5053177;28;20052;-89
2022/10/07 14:19:32;;;;;;;2.53;2.33;;;;;;;;;;5052943;28;20091;-90
2022/10/07 14:21:59;;;;;;;1.42;1.30;;;;;;;;;;5066263;28;20048;-87
2022/10/07 14:24:26;;;;;;;2.72;2.53;;;;;;;;;;5051314;28;20063;-88
2022/10/07 14:26:52;;;;;;;3.45;3.25;;;;;;;;;;5072503;28;20530;-88
2022/10/07 14:29:23;;;;;;;2.65;2.42;;;;;;;;;;5067447;28;20099;-89
2022/10/07 14:37:29;;;;;;;2.45;2.25;;;;;;;;;;5068492;28;20761;-90
2022/10/07 14:39:56;;;;;;;2.90;2.70;;;;;;;;;;5072002;28;20488;-89
2022/10/07 14:42:24;;;;;;;3.10;2.88;;;;;;;;;;5072247;28;20093;-89
2022/10/07 14:44:52;;;;;;;2.40;2.20;;;;;;;;;;5071883;28;20048;-91
2022/10/07 14:47:19;;;;;;;3.20;3.00;;;;;;;;;;5071314;28;20051;-91
2022/10/07 14:49:47;;;;;;;3.28;3.08;;;;;;;;;;5052654;28;20045;-89
2022/10/07 14:52:21;;;;;;;3.40;3.10;;;;;;;;;;5052423;28;20547;-90
2022/10/07 14:54:47;;;;;;;3.83;3.08;;;;;;;;;;5064495;28;20061;-92
2022/10/07 14:57:14;;;;;;;2.80;2.60;;;;;;;;;;5072613;28;20053;-90
2022/10/07 14:59:40;;;;;;;3.03;2.83;;;;;;;;;;5072343;28;20098;-91
2022/10/07 15:02:07;;;;;;;3.85;3.55;;;;;;;;;;5072059;28;20063;-89
2022/10/07 15:04:33;;;;;;;2.15;1.95;;;;;;;;;;5072053;28;20117;-89
2022/10/07 15:07:01;;;;;;;4.05;3.78;;;;;;;;;;5072857;28;20048;-91
2022/10/07 15:09:28;;;;;;;2.80;2.20;;;;;;;;;;5071422;28;20106;-92
2022/10/07 15:11:55;;;;;;;2.58;2.38;;;;;;;;;;5072337;28;20499;-90
2022/10/07 15:14:21;;;;;;;2.85;2.65;;;;;;;;;;5072186;28;20147;-90